createdAt,value
2018-09-29T00:00:05.190Z,59.64
2018-09-29T00:01:05.172Z,59.67
2018-09-29T00:02:05.192Z,59.37
2018-09-29T00:03:05.193Z,59.16
2018-09-29T00:04:05.142Z,59.75
2018-09-29T00:05:05.129Z,59.47
2018-09-29T00:06:05.127Z,58.96
2018-09-29T00:07:05.141Z,59.16
2018-09-29T00:08:05.102Z,58.86
2018-09-29T00:09:05.093Z,59.16
2018-09-29T00:10:05.116Z,58.96
2018-09-29T00:11:05.067Z,59.06
2018-09-29T00:12:05.106Z,58.63
2018-09-29T00:13:05.061Z,58.73
2018-09-29T00:14:05.036Z,58.76
2018-09-29T00:15:05.046Z,57.84
2018-09-29T00:16:05.019Z,57.71
2018-09-29T00:17:05.001Z,58.02
2018-09-29T00:18:05.040Z,58.42
2018-09-29T00:19:04.994Z,59.14
2018-09-29T00:20:04.973Z,57.74
2018-09-29T00:21:04.962Z,57.84
2018-09-29T00:22:04.956Z,57.74
2018-09-29T00:23:04.968Z,57.84
2018-09-29T00:24:04.938Z,57.56
2018-09-29T00:25:04.936Z,57.84
2018-09-29T00:26:04.906Z,57.74
2018-09-29T00:27:04.907Z,58.45
2018-09-29T00:28:04.920Z,58.78
2018-09-29T00:29:04.872Z,58.65
2018-09-29T00:30:04.866Z,58.69
2018-09-29T00:31:04.895Z,59.30
2018-09-29T00:32:04.862Z,58.58
2018-09-29T00:33:04.833Z,58.04
2018-09-29T00:34:04.846Z,57.97
2018-09-29T00:35:04.825Z,57.67
2018-09-29T00:36:04.815Z,57.67
2018-09-29T00:37:04.824Z,57.56
2018-09-29T00:38:04.919Z,57.43
2018-09-29T00:39:04.806Z,57.56
2018-09-29T00:40:04.760Z,57.26
2018-09-29T00:41:04.765Z,57.43
2018-09-29T00:42:04.747Z,56.93
2018-09-29T00:43:04.726Z,56.73
2018-09-29T00:44:04.744Z,56.65
2018-09-29T00:45:04.711Z,56.24
2018-09-29T00:46:04.688Z,56.24
2018-09-29T00:47:04.697Z,56.34
2018-09-29T00:48:04.667Z,56.34
2018-09-29T00:49:04.692Z,55.53
2018-09-29T00:50:04.653Z,55.53
2018-09-29T00:51:04.669Z,56.14
2018-09-29T00:52:04.631Z,55.63
2018-09-29T00:53:05.238Z,55.94
2018-09-29T00:54:04.620Z,55.43
2018-09-29T00:55:04.627Z,55.53
2018-09-29T00:56:04.581Z,55.43
2018-09-29T00:57:04.571Z,55.33
2018-09-29T00:58:04.561Z,55.43
2018-09-29T00:59:04.583Z,56.04
2018-09-29T01:00:04.571Z,56.04
2018-09-29T01:01:04.530Z,56.04
2018-09-29T01:02:04.521Z,56.04
2018-09-29T01:03:04.521Z,56.14
2018-09-29T01:04:04.515Z,56.24
2018-09-29T01:05:04.514Z,56.24
2018-09-29T01:06:04.476Z,56.34
2018-09-29T01:07:04.471Z,55.86
2018-09-29T01:08:04.457Z,55.63
2018-09-29T01:09:04.487Z,56.07
2018-09-29T01:10:04.479Z,56.24
2018-09-29T01:11:04.433Z,56.47
2018-09-29T01:12:04.414Z,56.77
2018-09-29T01:13:04.431Z,55.86
2018-09-29T01:14:04.391Z,56.16
2018-09-29T01:15:04.400Z,56.27
2018-09-29T01:16:04.397Z,56.37
2018-09-29T01:17:04.355Z,56.27
2018-09-29T01:18:04.345Z,56.37
2018-09-29T01:19:04.338Z,56.27
2018-09-29T01:20:04.328Z,56.70
2018-09-29T01:21:04.341Z,56.60
2018-09-29T01:22:04.310Z,56.70
2018-09-29T01:23:04.302Z,56.40
2018-09-29T01:24:04.285Z,56.90
2018-09-29T01:25:04.272Z,57.11
2018-09-29T01:26:04.304Z,56.70
2018-09-29T01:27:04.258Z,56.60
2018-09-29T01:28:04.239Z,56.40
2018-09-29T01:29:04.239Z,56.29
2018-09-29T01:30:04.223Z,56.40
2018-09-29T01:31:04.222Z,56.50
2018-09-29T01:32:04.234Z,56.29
2018-09-29T01:33:04.188Z,56.42
2018-09-29T01:34:04.180Z,56.42
2018-09-29T01:35:04.173Z,56.83
2018-09-29T01:36:04.171Z,56.83
2018-09-29T01:37:04.187Z,57.14
2018-09-29T01:38:04.139Z,56.93
2018-09-29T01:39:04.140Z,56.83
2018-09-29T01:40:04.118Z,56.93
2018-09-29T01:41:04.107Z,56.73
2018-09-29T01:42:04.123Z,57.24
2018-09-29T01:43:04.084Z,56.73
2018-09-29T01:44:04.079Z,56.40
2018-09-29T01:45:04.061Z,56.40
2018-09-29T01:46:04.052Z,56.63
2018-09-29T01:47:04.071Z,56.60
2018-09-29T01:48:04.049Z,56.12
2018-09-29T01:49:04.023Z,56.42
2018-09-29T01:50:04.017Z,56.40
2018-09-29T01:51:03.999Z,56.12
2018-09-29T01:52:03.984Z,56.20
2018-09-29T01:53:04.000Z,56.22
2018-09-29T01:54:03.962Z,56.42
2018-09-29T01:55:03.952Z,56.32
2018-09-29T01:56:03.940Z,56.20
2018-09-29T01:57:03.929Z,56.52
2018-09-29T01:58:03.963Z,56.32
2018-09-29T01:59:03.910Z,56.32
2018-09-29T02:00:03.921Z,56.12
2018-09-29T02:01:03.911Z,56.12
2018-09-29T02:02:03.894Z,56.42
2018-09-29T02:03:03.896Z,56.32
2018-09-29T02:04:03.881Z,56.76
2018-09-29T02:05:03.936Z,57.06
2018-09-29T02:06:03.836Z,57.14
2018-09-29T02:07:03.853Z,57.26
2018-09-29T02:08:03.934Z,57.37
2018-09-29T02:09:03.823Z,57.17
2018-09-29T02:10:03.792Z,57.37
2018-09-29T02:11:03.796Z,57.67
2018-09-29T02:12:03.779Z,57.47
2018-09-29T02:13:03.762Z,57.78
2018-09-29T02:14:03.824Z,58.28
2018-09-29T02:15:03.768Z,57.67
2018-09-29T02:16:03.726Z,58.18
2018-09-29T02:17:03.726Z,58.11
2018-09-29T02:18:03.716Z,57.60
2018-09-29T02:19:03.697Z,57.90
2018-09-29T02:20:03.707Z,58.18
2018-09-29T02:21:03.680Z,58.21
2018-09-29T02:22:03.681Z,57.67
2018-09-29T02:23:03.663Z,57.87
2018-09-29T02:24:03.652Z,57.67
2018-09-29T02:25:03.659Z,57.67
2018-09-29T02:26:03.632Z,58.08
2018-09-29T02:27:03.613Z,58.01
2018-09-29T02:28:03.607Z,58.89
2018-09-29T02:29:03.680Z,58.82
2018-09-29T02:30:03.621Z,58.80
2018-09-29T02:31:03.597Z,59.33
2018-09-29T02:32:03.566Z,58.01
2018-09-29T02:33:03.545Z,58.28
2018-09-29T02:34:03.537Z,58.92
2018-09-29T02:35:03.568Z,58.21
2018-09-29T02:36:03.517Z,58.21
2018-09-29T02:37:03.502Z,58.82
2018-09-29T02:38:03.527Z,58.31
2018-09-29T02:39:03.486Z,58.01
2018-09-29T02:40:03.474Z,58.31
2018-09-29T02:41:03.494Z,57.90
2018-09-29T02:42:03.454Z,58.01
2018-09-29T02:43:03.460Z,58.51
2018-09-29T02:44:03.448Z,59.05
2018-09-29T02:45:03.427Z,58.95
2018-09-29T02:46:03.428Z,59.36
2018-09-29T02:47:03.401Z,59.46
2018-09-29T02:48:03.392Z,59.97
2018-09-29T02:49:03.387Z,59.87
2018-09-29T02:50:03.381Z,60.30
2018-09-29T02:51:03.413Z,59.97
2018-09-29T02:52:03.377Z,60.61
2018-09-29T02:53:03.345Z,60.51
2018-09-29T02:54:03.326Z,60.92
2018-09-29T02:55:03.312Z,60.03
2018-09-29T02:56:03.340Z,60.92
2018-09-29T02:57:03.302Z,60.51
2018-09-29T02:58:03.291Z,60.74
2018-09-29T02:59:03.285Z,60.92
2018-09-29T03:00:03.271Z,61.32
2018-09-29T03:01:03.267Z,61.25
2018-09-29T03:02:03.287Z,61.56
2018-09-29T03:03:03.246Z,61.87
2018-09-29T03:04:03.225Z,61.66
2018-09-29T03:05:03.225Z,61.97
2018-09-29T03:06:03.221Z,61.97
2018-09-29T03:07:03.268Z,62.17
2018-09-29T03:08:03.189Z,61.99
2018-09-29T03:09:03.176Z,62.51
2018-09-29T03:10:03.154Z,62.20
2018-09-29T03:11:03.146Z,62.61
2018-09-29T03:12:03.190Z,62.92
2018-09-29T03:13:03.219Z,63.02
2018-09-29T03:14:03.122Z,62.20
2018-09-29T03:15:03.103Z,62.71
2018-09-29T03:16:03.120Z,63.02
2018-09-29T03:17:03.109Z,62.92
2018-09-29T03:18:03.077Z,63.15
2018-09-29T03:19:03.128Z,62.84
2018-09-29T03:20:03.070Z,63.04
2018-09-29T03:21:03.043Z,63.32
2018-09-29T03:22:03.056Z,63.35
2018-09-29T03:23:03.099Z,62.95
2018-09-29T03:24:03.020Z,63.45
2018-09-29T03:25:03.002Z,63.76
2018-09-29T03:26:03.004Z,63.63
2018-09-29T03:27:03.023Z,63.43
2018-09-29T03:28:02.989Z,63.56
2018-09-29T03:29:02.973Z,64.27
2018-09-29T03:30:02.939Z,64.07
2018-09-29T03:31:02.931Z,64.37
2018-09-29T03:32:02.926Z,64.07
2018-09-29T03:33:02.950Z,64.37
2018-09-29T03:34:02.910Z,64.24
2018-09-29T03:35:02.901Z,63.96
2018-09-29T03:36:02.903Z,64.27
2018-09-29T03:37:02.876Z,64.27
2018-09-29T03:38:02.883Z,64.27
2018-09-29T03:39:02.853Z,64.07
2018-09-29T03:40:02.837Z,63.93
2018-09-29T03:41:02.820Z,64.48
2018-09-29T03:42:02.837Z,64.37
2018-09-29T03:43:02.864Z,64.17
2018-09-29T03:44:02.798Z,63.73
2018-09-29T03:45:02.785Z,63.32
2018-09-29T03:46:02.776Z,63.45
2018-09-29T03:47:02.753Z,63.56
2018-09-29T03:48:02.777Z,63.15
2018-09-29T03:49:02.764Z,63.04
2018-09-29T03:50:02.771Z,62.23
2018-09-29T03:51:02.736Z,61.99
2018-09-29T03:52:02.701Z,61.72
2018-09-29T03:53:02.723Z,61.10
2018-09-29T03:54:02.709Z,61.38
2018-09-29T03:55:02.674Z,60.87
2018-09-29T03:56:02.672Z,60.87
2018-09-29T03:57:02.663Z,60.67
2018-09-29T03:58:02.638Z,60.87
2018-09-29T03:59:02.660Z,59.95
2018-09-29T04:00:02.630Z,59.75
2018-09-29T04:01:02.604Z,59.44
2018-09-29T04:02:02.601Z,59.44
2018-09-29T04:03:02.643Z,59.52
2018-09-29T04:04:02.604Z,59.41
2018-09-29T04:05:02.561Z,58.70
2018-09-29T04:06:02.572Z,58.19
2018-09-29T04:07:02.538Z,58.50
2018-09-29T04:08:02.531Z,57.48
2018-09-29T04:09:02.517Z,57.34
2018-09-29T04:10:02.542Z,57.55
2018-09-29T04:11:02.497Z,57.14
2018-09-29T04:12:02.484Z,57.14
2018-09-29T04:13:02.489Z,57.04
2018-09-29T04:14:02.471Z,56.94
2018-09-29T04:15:02.491Z,57.17
2018-09-29T04:16:02.452Z,57.37
2018-09-29T04:17:02.441Z,56.94
2018-09-29T04:18:02.423Z,56.43
2018-09-29T04:19:02.415Z,56.12
2018-09-29T04:20:02.432Z,56.12
2018-09-29T04:21:02.394Z,55.82
2018-09-29T04:22:02.381Z,55.71
2018-09-29T04:23:02.372Z,55.74
2018-09-29T04:24:02.370Z,55.41
2018-09-29T04:25:02.426Z,55.61
2018-09-29T04:26:02.348Z,55.33
2018-09-29T04:27:02.339Z,55.43
2018-09-29T04:28:02.347Z,55.33
2018-09-29T04:29:02.309Z,55.43
2018-09-29T04:30:02.297Z,55.30
2018-09-29T04:31:02.321Z,55.00
2018-09-29T04:32:02.275Z,55.10
2018-09-29T04:33:02.272Z,55.00
2018-09-29T04:34:02.265Z,54.90
2018-09-29T04:35:02.243Z,54.59
2018-09-29T04:36:02.269Z,54.49
2018-09-29T04:37:02.224Z,54.51
2018-09-29T04:38:02.211Z,55.00
2018-09-29T04:39:02.199Z,55.00
2018-09-29T04:40:02.188Z,54.90
2018-09-29T04:41:02.225Z,54.28
2018-09-29T04:42:02.170Z,54.59
2018-09-29T04:43:02.235Z,53.67
2018-09-29T04:44:02.163Z,54.49
2018-09-29T04:45:02.134Z,54.59
2018-09-29T04:46:02.152Z,54.79
2018-09-29T04:47:02.135Z,54.79
2018-09-29T04:48:02.138Z,54.59
2018-09-29T04:49:02.100Z,54.59
2018-09-29T04:50:02.085Z,53.98
2018-09-29T04:51:02.086Z,53.88
2018-09-29T04:52:02.089Z,53.88
2018-09-29T04:53:02.074Z,54.39
2018-09-29T04:54:02.042Z,54.49
2018-09-29T04:55:02.036Z,54.61
2018-09-29T04:56:02.025Z,54.39
2018-09-29T04:57:02.049Z,53.77
2018-09-29T04:58:02.011Z,54.59
2018-09-29T04:59:01.991Z,54.61
2018-09-29T05:00:01.983Z,54.31
2018-09-29T05:01:01.985Z,53.80
2018-09-29T05:02:02.020Z,54.61
2018-09-29T05:03:01.939Z,54.41
2018-09-29T05:04:01.930Z,54.82
2018-09-29T05:05:01.941Z,54.72
2018-09-29T05:06:01.906Z,54.41
2018-09-29T05:07:01.920Z,54.51
2018-09-29T05:08:01.936Z,54.90
2018-09-29T05:09:01.878Z,54.72
2018-09-29T05:10:01.883Z,54.11
2018-09-29T05:11:01.864Z,53.90
2018-09-29T05:12:01.857Z,53.90
2018-09-29T05:13:01.884Z,54.11
2018-09-29T05:14:01.933Z,54.11
2018-09-29T05:15:01.813Z,54.11
2018-09-29T05:16:01.808Z,54.72
2018-09-29T05:17:01.807Z,54.72
2018-09-29T05:18:01.825Z,54.61
2018-09-29T05:19:01.786Z,55.02
2018-09-29T05:20:01.761Z,54.72
2018-09-29T05:21:01.775Z,54.82
2018-09-29T05:22:01.745Z,55.02
2018-09-29T05:23:01.768Z,54.51
2018-09-29T05:24:01.749Z,54.51
2018-09-29T05:25:01.711Z,54.51
2018-09-29T05:26:01.714Z,54.51
2018-09-29T05:27:01.723Z,54.51
2018-09-29T05:28:01.689Z,54.51
2018-09-29T05:29:01.707Z,54.51
2018-09-29T05:30:01.653Z,54.51
2018-09-29T05:31:01.881Z,55.02
2018-09-29T05:32:01.637Z,54.92
2018-09-29T05:33:01.630Z,55.02
2018-09-29T05:34:01.652Z,54.92
2018-09-29T05:35:01.614Z,55.02
2018-09-29T05:36:01.646Z,54.82
2018-09-29T05:37:01.591Z,55.02
2018-09-29T05:38:01.571Z,55.02
2018-09-29T05:39:01.629Z,54.92
2018-09-29T05:40:01.584Z,55.02
2018-09-29T05:41:01.546Z,54.61
2018-09-29T05:42:01.537Z,54.82
2018-09-29T05:43:01.526Z,54.61
2018-09-29T05:44:01.503Z,54.41
2018-09-29T05:45:01.527Z,54.82
2018-09-29T05:46:01.494Z,54.51
2018-09-29T05:47:01.479Z,54.92
2018-09-29T05:48:01.483Z,55.33
2018-09-29T05:49:01.456Z,55.02
2018-09-29T05:50:01.466Z,55.33
2018-09-29T05:51:01.450Z,55.02
2018-09-29T05:52:01.428Z,55.23
2018-09-29T05:53:01.449Z,54.82
2018-09-29T05:54:01.540Z,55.10
2018-09-29T05:55:01.441Z,54.49
2018-09-29T05:56:01.398Z,55.00
2018-09-29T05:57:01.365Z,54.49
2018-09-29T05:58:01.362Z,54.69
2018-09-29T05:59:01.348Z,54.59
2018-09-29T06:00:01.497Z,53.98
2018-09-29T06:01:01.349Z,54.59
2018-09-29T06:02:01.322Z,54.90
2018-09-29T06:03:01.383Z,54.59
2018-09-29T06:04:01.384Z,54.49
2018-09-29T06:05:01.316Z,54.69
2018-09-29T06:06:01.271Z,54.49
2018-09-29T06:07:01.310Z,54.49
2018-09-29T06:08:01.289Z,54.49
2018-09-29T06:09:01.265Z,54.59
2018-09-29T06:10:01.222Z,54.49
2018-09-29T06:11:01.224Z,55.00
2018-09-29T06:12:01.208Z,55.20
2018-09-29T06:13:01.267Z,55.20
2018-09-29T06:14:01.188Z,55.20
2018-09-29T06:15:01.192Z,55.10
2018-09-29T06:16:01.165Z,54.90
2018-09-29T06:17:01.157Z,55.54
2018-09-29T06:18:01.185Z,55.41
2018-09-29T06:19:01.148Z,55.23
2018-09-29T06:20:01.126Z,54.49
2018-09-29T06:21:01.192Z,55.13
2018-09-29T06:22:01.111Z,55.00
2018-09-29T06:23:01.135Z,55.10
2018-09-29T06:24:01.084Z,55.00
2018-09-29T06:25:01.069Z,55.41
2018-09-29T06:26:01.067Z,55.20
2018-09-29T06:27:01.041Z,55.07
2018-09-29T06:28:01.119Z,55.00
2018-09-29T06:29:01.053Z,54.77
2018-09-29T06:30:01.021Z,54.97
2018-09-29T06:31:01.000Z,55.00
2018-09-29T06:32:00.989Z,54.46
2018-09-29T06:33:00.982Z,55.28
2018-09-29T06:34:00.995Z,55.38
2018-09-29T06:35:00.960Z,54.97
2018-09-29T06:36:00.957Z,54.57
2018-09-29T06:37:00.957Z,54.87
2018-09-29T06:38:00.926Z,54.57
2018-09-29T06:39:00.940Z,54.87
2018-09-29T06:40:00.917Z,55.07
2018-09-29T06:41:00.926Z,55.18
2018-09-29T06:42:00.907Z,55.28
2018-09-29T06:43:00.870Z,54.87
2018-09-29T06:44:00.863Z,54.97
2018-09-29T06:45:00.880Z,54.57
2018-09-29T06:46:00.857Z,54.54
2018-09-29T06:47:00.832Z,54.64
2018-09-29T06:48:00.871Z,54.03
2018-09-29T06:49:00.815Z,53.42
2018-09-29T06:50:00.820Z,54.44
2018-09-29T06:51:00.810Z,54.85
2018-09-29T06:52:00.780Z,54.44
2018-09-29T06:53:00.778Z,54.44
2018-09-29T06:54:00.763Z,54.74
2018-09-29T06:55:00.751Z,54.54
2018-09-29T06:56:00.760Z,54.51
2018-09-29T06:57:00.728Z,54.92
2018-09-29T06:58:00.718Z,54.94
2018-09-29T06:59:00.720Z,54.64
2018-09-29T07:00:00.702Z,54.74
2018-09-29T07:01:00.711Z,54.44
2018-09-29T07:02:00.678Z,55.15
2018-09-29T07:03:00.683Z,54.54
2018-09-29T07:04:00.648Z,53.72
2018-09-29T07:05:00.641Z,54.41
2018-09-29T07:06:00.668Z,55.13
2018-09-29T07:07:00.622Z,54.31
2018-09-29T07:08:00.609Z,54.72
2018-09-29T07:09:00.598Z,54.41
2018-09-29T07:10:00.621Z,53.80
2018-09-29T07:11:00.592Z,53.80
2018-09-29T07:12:00.565Z,54.31
2018-09-29T07:13:00.650Z,53.88
2018-09-29T07:14:00.540Z,54.59
2018-09-29T07:15:00.533Z,54.79
2018-09-29T07:16:00.542Z,53.78
2018-09-29T07:17:00.532Z,53.78
2018-09-29T07:18:00.500Z,53.88
2018-09-29T07:19:00.487Z,53.78
2018-09-29T07:20:00.485Z,54.16
2018-09-29T07:21:00.497Z,53.85
2018-09-29T07:22:00.518Z,54.05
2018-09-29T07:23:00.462Z,53.44
2018-09-29T07:24:00.433Z,53.55
2018-09-29T07:25:00.427Z,53.65
2018-09-29T07:26:00.445Z,53.34
2018-09-29T07:27:00.405Z,53.85
2018-09-29T07:28:00.390Z,52.83
2018-09-29T07:29:00.398Z,53.55
2018-09-29T07:30:00.373Z,52.94
2018-09-29T07:31:00.367Z,52.71
2018-09-29T07:32:00.373Z,53.34
2018-09-29T07:33:00.341Z,52.61
2018-09-29T07:34:00.344Z,52.20
2018-09-29T07:35:00.321Z,52.50
2018-09-29T07:36:00.306Z,52.20
2018-09-29T07:37:00.313Z,52.20
2018-09-29T07:38:00.318Z,52.98
2018-09-29T07:39:00.331Z,51.89
2018-09-29T07:40:00.328Z,52.50
2018-09-29T07:41:00.257Z,52.30
2018-09-29T07:42:00.275Z,52.50
2018-09-29T07:43:00.231Z,52.08
2018-09-29T07:44:00.228Z,52.78
2018-09-29T07:45:00.207Z,51.97
2018-09-29T07:46:00.199Z,51.67
2018-09-29T07:47:00.210Z,51.97
2018-09-29T07:48:00.207Z,51.97
2018-09-29T07:49:00.185Z,51.67
2018-09-29T07:50:00.191Z,51.36
2018-09-29T07:51:00.144Z,51.46
2018-09-29T07:52:00.144Z,51.56
2018-09-29T07:53:00.135Z,51.67
2018-09-29T07:54:00.115Z,51.95
2018-09-29T07:55:00.145Z,51.64
2018-09-29T07:56:00.218Z,51.44
2018-09-29T07:57:00.118Z,51.01
2018-09-29T07:58:00.088Z,51.64
2018-09-29T07:59:00.099Z,51.44
2018-09-29T08:00:00.053Z,51.51
2018-09-29T08:01:00.052Z,51.51
2018-09-29T08:02:00.032Z,51.51
2018-09-29T08:03:00.021Z,51.31
2018-09-29T08:04:00.040Z,51.11
2018-09-29T08:04:59.999Z,50.40
2018-09-29T08:05:59.989Z,50.29
2018-09-29T08:06:59.976Z,50.50
2018-09-29T08:07:59.962Z,50.98
2018-09-29T08:08:59.975Z,51.09
2018-09-29T08:09:59.968Z,51.09
2018-09-29T08:10:59.935Z,50.48
2018-09-29T08:11:59.921Z,50.37
2018-09-29T08:12:59.910Z,50.27
2018-09-29T08:13:59.944Z,50.15
2018-09-29T08:14:59.893Z,50.48
2018-09-29T08:15:59.875Z,49.76
2018-09-29T08:16:59.874Z,51.09
2018-09-29T08:17:59.862Z,50.50
2018-09-29T08:18:59.847Z,51.29
2018-09-29T08:19:59.859Z,50.45
2018-09-29T08:20:59.825Z,50.35
2018-09-29T08:21:59.811Z,50.53
2018-09-29T08:22:59.810Z,50.33
2018-09-29T08:23:59.928Z,49.62
2018-09-29T08:24:59.877Z,49.31
2018-09-29T08:25:59.808Z,49.69
2018-09-29T08:26:59.758Z,49.49
2018-09-29T08:27:59.749Z,49.16
2018-09-29T08:28:59.739Z,50.10
2018-09-29T08:29:59.743Z,49.37
2018-09-29T08:30:59.742Z,49.90
2018-09-29T08:31:59.707Z,49.39
2018-09-29T08:32:59.722Z,50.18
2018-09-29T08:33:59.691Z,49.57
2018-09-29T08:34:59.685Z,49.37
2018-09-29T08:35:59.704Z,48.35
2018-09-29T08:36:59.667Z,48.13
2018-09-29T08:37:59.685Z,48.74
2018-09-29T08:38:59.627Z,48.13
2018-09-29T08:39:59.634Z,48.43
2018-09-29T08:40:59.670Z,48.54
2018-09-29T08:41:59.636Z,49.24
2018-09-29T08:42:59.596Z,49.34
2018-09-29T08:43:59.578Z,48.11
2018-09-29T08:44:59.579Z,47.50
2018-09-29T08:45:59.594Z,48.21
2018-09-29T08:46:59.613Z,47.60
2018-09-29T08:47:59.544Z,48.00
2018-09-29T08:48:59.574Z,47.80
2018-09-29T08:49:59.511Z,48.41
2018-09-29T08:50:59.525Z,47.80
2018-09-29T08:51:59.496Z,48.13
2018-09-29T08:52:59.480Z,47.92
2018-09-29T08:53:59.590Z,47.62
2018-09-29T08:54:59.489Z,48.74
2018-09-29T08:55:59.451Z,48.74
2018-09-29T08:56:59.439Z,48.23
2018-09-29T08:57:59.426Z,47.62
2018-09-29T08:58:59.419Z,48.66
2018-09-29T08:59:59.437Z,48.76
2018-09-29T09:00:59.398Z,48.23
2018-09-29T09:01:59.386Z,48.54
2018-09-29T09:02:59.374Z,48.13
2018-09-29T09:03:59.385Z,47.92
2018-09-29T09:04:59.389Z,48.43
2018-09-29T09:05:59.357Z,49.32
2018-09-29T09:06:59.342Z,48.63
2018-09-29T09:07:59.323Z,49.62
2018-09-29T09:08:59.319Z,49.62
2018-09-29T09:09:59.356Z,48.08
2018-09-29T09:10:59.318Z,48.39
2018-09-29T09:11:59.293Z,47.67
2018-09-29T09:12:59.323Z,48.59
2018-09-29T09:13:59.288Z,47.86
2018-09-29T09:14:59.254Z,47.66
2018-09-29T09:15:59.274Z,46.87
2018-09-29T09:16:59.297Z,47.38
2018-09-29T09:17:59.213Z,47.98
2018-09-29T09:18:59.217Z,48.08
2018-09-29T09:19:59.196Z,48.21
2018-09-29T09:20:59.248Z,48.39
2018-09-29T09:21:59.780Z,47.88
2018-09-29T09:22:59.196Z,47.67
2018-09-29T09:23:59.158Z,46.75
2018-09-29T09:24:59.135Z,47.66
2018-09-29T09:25:59.149Z,47.35
2018-09-29T09:26:59.116Z,46.72
2018-09-29T09:27:59.114Z,47.74
2018-09-29T09:28:59.124Z,46.70
2018-09-29T09:29:59.183Z,46.60
2018-09-29T09:30:59.138Z,45.89
2018-09-29T09:31:59.077Z,46.28
2018-09-29T09:32:59.098Z,46.68
2018-09-29T09:33:59.048Z,46.28
2018-09-29T09:34:59.059Z,45.16
2018-09-29T09:35:59.026Z,45.57
2018-09-29T09:36:59.018Z,45.77
2018-09-29T09:37:58.995Z,45.47
2018-09-29T09:38:58.985Z,45.06
2018-09-29T09:39:59.003Z,46.09
2018-09-29T09:40:58.992Z,46.58
2018-09-29T09:41:58.953Z,46.15
2018-09-29T09:42:58.964Z,46.15
2018-09-29T09:43:58.933Z,46.05
2018-09-29T09:44:58.933Z,45.37
2018-09-29T09:45:58.915Z,45.57
2018-09-29T09:46:58.905Z,45.77
2018-09-29T09:47:58.928Z,45.95
2018-09-29T09:48:58.892Z,45.73
2018-09-29T09:49:58.883Z,46.53
2018-09-29T09:50:58.863Z,45.61
2018-09-29T09:51:58.850Z,44.98
2018-09-29T09:52:58.873Z,44.47
2018-09-29T09:53:58.838Z,43.85
2018-09-29T09:54:58.847Z,43.74
2018-09-29T09:55:58.852Z,43.37
2018-09-29T09:56:58.811Z,43.24
2018-09-29T09:57:58.814Z,43.32
2018-09-29T09:58:58.773Z,45.14
2018-09-29T09:59:58.766Z,43.62
2018-09-29T10:00:58.748Z,45.34
2018-09-29T10:01:58.741Z,43.73
2018-09-29T10:02:58.735Z,43.93
2018-09-29T10:03:58.738Z,43.20
2018-09-29T10:04:58.710Z,43.60
2018-09-29T10:05:58.698Z,42.98
2018-09-29T10:06:58.704Z,43.06
2018-09-29T10:07:58.706Z,43.96
2018-09-29T10:08:58.688Z,43.24
2018-09-29T10:09:58.661Z,43.32
2018-09-29T10:10:58.649Z,42.82
2018-09-29T10:11:58.644Z,40.89
2018-09-29T10:12:58.641Z,40.69
2018-09-29T10:13:58.619Z,40.59
2018-09-29T10:14:58.600Z,40.99
2018-09-29T10:15:58.593Z,41.47
2018-09-29T10:16:58.587Z,40.93
2018-09-29T10:17:58.616Z,39.40
2018-09-29T10:18:58.569Z,39.18
2018-09-29T10:19:58.555Z,38.25
2018-09-29T10:20:58.545Z,38.11
2018-09-29T10:21:58.556Z,37.38
2018-09-29T10:22:58.520Z,35.96
2018-09-29T10:23:58.537Z,35.86
2018-09-29T10:24:58.498Z,35.49
2018-09-29T10:25:58.485Z,33.98
2018-09-29T10:26:58.471Z,32.84
2018-09-29T10:27:58.467Z,32.41
2018-09-29T10:28:58.484Z,32.29
2018-09-29T10:29:58.447Z,32.31
2018-09-29T10:30:58.497Z,32.39
2018-09-29T10:31:58.424Z,31.24
2018-09-29T10:32:58.409Z,31.62
2018-09-29T10:33:58.410Z,29.92
2018-09-29T10:34:58.389Z,31.47
2018-09-29T10:35:58.422Z,31.90
2018-09-29T10:36:58.391Z,32.51
2018-09-29T10:37:58.364Z,31.13
2018-09-29T10:38:58.348Z,29.27
2018-09-29T10:39:58.350Z,27.24
2018-09-29T10:40:58.323Z,26.40
2018-09-29T10:41:58.337Z,26.57
2018-09-29T10:42:58.311Z,25.07
2018-09-29T10:43:58.301Z,24.76
2018-09-29T10:44:58.287Z,24.58
2018-09-29T10:45:58.278Z,24.57
2018-09-29T10:46:58.300Z,24.16
2018-09-29T10:47:58.264Z,24.16
2018-09-29T10:48:58.252Z,24.05
2018-09-29T10:49:58.244Z,24.52
2018-09-29T10:50:58.229Z,23.65
2018-09-29T10:51:58.213Z,23.95
2018-09-29T10:52:58.257Z,23.95
2018-09-29T10:53:58.208Z,23.54
2018-09-29T10:54:58.207Z,23.63
2018-09-29T10:55:58.168Z,23.52
2018-09-29T10:56:58.165Z,24.02
2018-09-29T10:57:58.181Z,23.63
2018-09-29T10:58:58.154Z,24.05
2018-09-29T10:59:58.147Z,24.25
2018-09-29T11:00:58.128Z,24.06
2018-09-29T11:01:58.109Z,24.73
2018-09-29T11:02:58.131Z,24.73
2018-09-29T11:03:58.098Z,23.24
2018-09-29T11:04:58.162Z,23.74
2018-09-29T11:05:58.085Z,23.72
2018-09-29T11:06:58.061Z,23.82
2018-09-29T11:07:58.084Z,23.33
2018-09-29T11:08:58.093Z,23.60
2018-09-29T11:09:58.038Z,23.21
2018-09-29T11:10:58.021Z,23.49
2018-09-29T11:11:58.014Z,22.70
2018-09-29T11:12:58.003Z,22.21
2018-09-29T11:13:58.038Z,22.21
2018-09-29T11:14:57.997Z,22.39
2018-09-29T11:15:57.974Z,22.19
2018-09-29T11:16:58.002Z,21.91
2018-09-29T11:17:57.959Z,22.12
2018-09-29T11:18:57.981Z,22.51
2018-09-29T11:19:57.948Z,22.70
2018-09-29T11:20:58.076Z,22.11
2018-09-29T11:21:57.919Z,21.99
2018-09-29T11:22:57.913Z,21.49
2018-09-29T11:23:57.896Z,21.78
2018-09-29T11:24:57.927Z,21.07
2018-09-29T11:25:57.881Z,20.96
2018-09-29T11:26:57.874Z,20.48
2018-09-29T11:27:57.865Z,20.17
2018-09-29T11:28:57.858Z,20.06
2018-09-29T11:29:57.874Z,20.36
2018-09-29T11:30:57.827Z,20.16
2018-09-29T11:31:57.818Z,19.78
2018-09-29T11:32:57.811Z,20.27
2018-09-29T11:33:57.813Z,20.37
2018-09-29T11:34:57.822Z,20.26
2018-09-29T11:35:57.784Z,20.06
2018-09-29T11:36:57.770Z,20.15
2018-09-29T11:37:57.769Z,20.15
2018-09-29T11:38:57.758Z,19.78
2018-09-29T11:39:57.779Z,20.35
2018-09-29T11:40:57.732Z,20.06
2018-09-29T11:41:57.733Z,19.56
2018-09-29T11:42:57.712Z,20.45
2018-09-29T11:43:57.711Z,20.14
2018-09-29T11:44:57.715Z,19.95
2018-09-29T11:45:57.706Z,19.07
2018-09-29T11:46:57.673Z,18.59
2018-09-29T11:47:57.664Z,18.88
2018-09-29T11:48:57.669Z,19.46
2018-09-29T11:49:57.680Z,20.14
2018-09-29T11:50:57.646Z,19.58
2018-09-29T11:51:57.632Z,19.76
2018-09-29T11:52:57.615Z,19.99
2018-09-29T11:53:57.611Z,20.17
2018-09-29T11:54:57.624Z,19.96
2018-09-29T11:55:57.599Z,18.78
2018-09-29T11:56:57.586Z,19.56
2018-09-29T11:57:57.569Z,19.18
2018-09-29T11:58:57.557Z,18.68
2018-09-29T11:59:57.590Z,18.68
2018-09-29T12:00:57.554Z,18.78
2018-09-29T12:01:57.678Z,19.89
2018-09-29T12:02:57.526Z,20.06
2018-09-29T12:03:57.551Z,19.58
2018-09-29T12:04:57.531Z,18.99
2018-09-29T12:05:57.555Z,18.60
2018-09-29T12:06:57.598Z,19.47
2018-09-29T12:07:57.502Z,20.25
2018-09-29T12:08:57.472Z,18.68
2018-09-29T12:09:57.487Z,18.58
2018-09-29T12:10:57.454Z,18.09
2018-09-29T12:11:57.436Z,18.76
2018-09-29T12:12:57.429Z,19.14
2018-09-29T12:13:57.466Z,18.66
2018-09-29T12:14:57.442Z,18.17
2018-09-29T12:15:57.409Z,18.66
2018-09-29T12:16:57.411Z,18.95
2018-09-29T12:17:57.385Z,18.96
2018-09-29T12:18:57.372Z,18.76
2018-09-29T12:19:57.359Z,19.15
2018-09-29T12:20:57.353Z,18.46
2018-09-29T12:21:57.372Z,18.46
2018-09-29T12:22:57.352Z,18.46
2018-09-29T12:23:57.337Z,18.74
2018-09-29T12:24:57.327Z,18.45
2018-09-29T12:25:57.304Z,17.77
2018-09-29T12:26:57.339Z,18.35
2018-09-29T12:27:57.291Z,18.16
2018-09-29T12:28:57.278Z,17.78
2018-09-29T12:29:57.311Z,19.06
2018-09-29T12:30:57.264Z,18.27
2018-09-29T12:31:57.290Z,18.57
2018-09-29T12:32:57.249Z,18.85
2018-09-29T12:33:57.233Z,19.04
2018-09-29T12:34:57.220Z,18.26
2018-09-29T12:35:57.246Z,18.16
2018-09-29T12:36:57.267Z,18.55
2018-09-29T12:37:57.199Z,18.07
2018-09-29T12:38:57.193Z,18.17
2018-09-29T12:39:57.178Z,18.16
2018-09-29T12:40:57.197Z,18.26
2018-09-29T12:41:57.157Z,18.27
2018-09-29T12:42:57.148Z,18.95
2018-09-29T12:43:57.143Z,18.86
2018-09-29T12:44:57.210Z,19.06
2018-09-29T12:45:57.151Z,18.86
2018-09-29T12:46:57.120Z,18.47
2018-09-29T12:47:57.101Z,18.29
2018-09-29T12:48:57.104Z,18.87
2018-09-29T12:49:57.089Z,19.74
2018-09-29T12:50:57.103Z,20.04
2018-09-29T12:51:57.160Z,19.65